West Lafayette, Ohio
Current Conditions -  °F | °C
As of 1:53 AM on Saturday 29 Nov 2014 (Local Time) from KPHD Reporting Station
Overcast Overcast  
Wind Chill: 24°   Ceiling: 7000
Heat Index: 30°   Visibility: 10mi
Dew Point: 20°   Wind: 6mph
Humidity: 66%   Direction: 140°SE
Pressure: 30.15"   Gusts: NA
Location:  40.28°N, 81.75°W
Report Text: KPHD 290653Z AUTO 14005KT 10SM OVC070 M01/M07 A3015 RMK AO2 SLP220 T10111067
Loading
Personal Weather Stations






























Interactive Weather Map New forecast layout! Learn more

10-Day Weather Forecast

Advertisements
Track Severe Weather on mobile